Time;durP1;ratioP1;P1;durP2;ratioP2;P2;SDS_P1;SDS_P2;PMS_P1;PMS_P2;Temp;Humidity;BMP_temperature;BMP_pressure;BME280_temperature;BME280_humidity;BME280_pressure;Samples;Min_cycle;Max_cycle;Signal;HPM_P1;HPM_P2
2021/11/01 00:01:28;;;;;;;5.05;1.10;;;;;;;;;;5093699;28;20031;-60
2021/11/01 00:03:53;;;;;;;4.50;1.23;;;;;;;;;;5093822;28;20047;-62
2021/11/01 00:06:19;;;;;;;3.97;1.30;;;;;;;;;;5085592;28;20529;-60
2021/11/01 00:08:45;;;;;;;4.72;2.13;;;;;;;;;;5095606;28;20137;-61
2021/11/01 00:11:12;;;;;;;3.15;1.58;;;;;;;;;;5093430;28;20043;-60
2021/11/01 00:13:37;;;;;;;3.22;1.13;;;;;;;;;;5094137;28;20035;-60
2021/11/01 00:16:03;;;;;;;3.70;1.35;;;;;;;;;;5093822;28;20085;-60
2021/11/01 00:18:29;;;;;;;2.85;1.05;;;;;;;;;;5094080;28;20028;-60
2021/11/01 00:20:55;;;;;;;9.75;1.15;;;;;;;;;;5092654;28;20047;-61
2021/11/01 00:23:22;;;;;;;2.00;0.68;;;;;;;;;;5094471;28;20028;-62
2021/11/01 00:25:48;;;;;;;6.53;0.80;;;;;;;;;;5094504;28;20036;-61
2021/11/01 00:28:15;;;;;;;5.95;1.08;;;;;;;;;;5095225;28;20048;-62
2021/11/01 00:30:41;;;;;;;2.58;0.95;;;;;;;;;;5095878;28;20032;-60
2021/11/01 00:33:06;;;;;;;3.88;1.10;;;;;;;;;;5093310;28;20044;-61
2021/11/01 00:35:32;;;;;;;3.40;1.15;;;;;;;;;;5091761;28;20439;-60
2021/11/01 00:37:59;;;;;;;3.50;1.23;;;;;;;;;;5093546;28;20032;-58
2021/11/01 00:40:25;;;;;;;2.83;1.00;;;;;;;;;;5092531;28;20081;-61
2021/11/01 00:42:51;;;;;;;3.88;1.20;;;;;;;;;;5091903;28;20111;-60
2021/11/01 00:45:16;;;;;;;3.47;1.20;;;;;;;;;;5092370;28;20042;-60
2021/11/01 00:47:42;;;;;;;4.55;1.05;;;;;;;;;;5091490;28;20079;-61
2021/11/01 00:50:09;;;;;;;2.97;1.20;;;;;;;;;;5092072;28;20035;-59
2021/11/01 00:52:34;;;;;;;4.65;1.50;;;;;;;;;;5090464;28;20072;-62
2021/11/01 00:55:04;;;;;;;4.05;1.42;;;;;;;;;;5090520;28;20085;-61
2021/11/01 00:57:30;;;;;;;3.78;1.63;;;;;;;;;;5089799;28;20489;-63
2021/11/01 00:59:58;;;;;;;5.15;1.52;;;;;;;;;;5069926;28;20043;-62
2021/11/01 01:02:25;;;;;;;5.05;1.45;;;;;;;;;;5090195;28;20040;-61
2021/11/01 01:04:51;;;;;;;8.18;1.42;;;;;;;;;;5091372;28;20039;-60
2021/11/01 01:07:17;;;;;;;14.40;1.83;;;;;;;;;;5091102;28;20049;-63
2021/11/01 01:09:43;;;;;;;4.90;1.77;;;;;;;;;;5090544;28;20427;-60
2021/11/01 01:12:09;;;;;;;5.60;1.85;;;;;;;;;;5089247;28;20052;-60
2021/11/01 01:14:50;;;;;;;10.60;2.10;;;;;;;;;;5091760;28;20142;-60
2021/11/01 01:17:19;;;;;;;3.55;1.60;;;;;;;;;;5089366;28;20028;-62
2021/11/01 01:19:52;;;;;;;6.53;1.60;;;;;;;;;;5089140;28;20040;-60
2021/11/01 01:22:39;;;;;;;7.55;1.73;;;;;;;;;;5092310;28;20043;-62
2021/11/01 01:27:53;;;;;;;4.03;1.65;;;;;;;;;;5092348;28;20062;-61
2021/11/01 01:30:19;;;;;;;10.05;2.05;;;;;;;;;;5092561;28;20119;-60
2021/11/01 01:32:46;;;;;;;5.85;2.65;;;;;;;;;;5074380;28;20044;-62
2021/11/01 01:35:13;;;;;;;4.82;1.88;;;;;;;;;;5090398;28;20070;-61
2021/11/01 01:37:39;;;;;;;3.72;1.52;;;;;;;;;;5089943;28;20039;-59
2021/11/01 01:40:07;;;;;;;6.20;2.00;;;;;;;;;;5092668;28;20040;-60
2021/11/01 01:42:33;;;;;;;3.97;1.63;;;;;;;;;;5089341;28;20440;-60
2021/11/01 01:44:59;;;;;;;5.97;1.90;;;;;;;;;;5091954;28;20075;-60
2021/11/01 01:47:25;;;;;;;6.32;2.15;;;;;;;;;;5092614;28;20043;-58
2021/11/01 01:49:51;;;;;;;4.32;1.77;;;;;;;;;;5092705;28;20044;-62
2021/11/01 01:52:20;;;;;;;7.07;2.85;;;;;;;;;;5093262;28;20051;-59
2021/11/01 01:54:46;;;;;;;5.00;2.33;;;;;;;;;;5090523;28;20410;-60
2021/11/01 01:57:11;;;;;;;4.00;2.00;;;;;;;;;;5090472;28;20040;-61
2021/11/01 01:59:37;;;;;;;4.05;2.05;;;;;;;;;;5089011;28;20113;-60
2021/11/01 02:02:03;;;;;;;4.50;2.30;;;;;;;;;;5086318;28;20172;-61
2021/11/01 02:04:29;;;;;;;5.68;2.05;;;;;;;;;;5089565;28;20039;-61
2021/11/01 02:06:56;;;;;;;5.85;2.22;;;;;;;;;;5068007;28;20073;-59
2021/11/01 02:09:24;;;;;;;8.48;2.10;;;;;;;;;;5089289;28;20044;-61
2021/11/01 02:11:56;;;;;;;4.32;2.13;;;;;;;;;;5090003;28;20036;-61
2021/11/01 02:14:32;;;;;;;5.85;2.47;;;;;;;;;;5091187;28;20075;-59
2021/11/01 02:17:00;;;;;;;8.00;2.15;;;;;;;;;;5091732;28;20057;-61
2021/11/01 02:19:28;;;;;;;6.45;2.20;;;;;;;;;;5069970;28;20028;-59
2021/11/01 02:21:58;;;;;;;5.57;2.20;;;;;;;;;;5089658;28;20039;-60
2021/11/01 02:24:43;;;;;;;10.98;2.53;;;;;;;;;;5091416;28;20032;-60
2021/11/01 02:27:11;;;;;;;6.30;2.38;;;;;;;;;;5096066;28;20056;-59
2021/11/01 02:29:43;;;;;;;5.93;2.75;;;;;;;;;;5093411;28;20048;-60
2021/11/01 02:32:10;;;;;;;17.15;2.85;;;;;;;;;;5094975;28;20035;-60
2021/11/01 02:34:36;;;;;;;6.63;2.33;;;;;;;;;;5093420;28;20043;-60
2021/11/01 02:37:02;;;;;;;8.98;2.28;;;;;;;;;;5093359;28;20558;-61
2021/11/01 02:39:31;;;;;;;4.38;2.45;;;;;;;;;;5089586;28;20082;-60
2021/11/01 02:41:58;;;;;;;5.20;2.40;;;;;;;;;;5087629;28;20036;-61
2021/11/01 02:44:27;;;;;;;6.13;2.45;;;;;;;;;;5086206;28;20388;-59
2021/11/01 02:46:53;;;;;;;5.60;2.40;;;;;;;;;;5090820;28;20060;-61
2021/11/01 02:49:19;;;;;;;11.02;4.32;;;;;;;;;;5069050;28;20048;-61
2021/11/01 02:51:45;;;;;;;5.03;1.90;;;;;;;;;;5089801;28;20040;-60
2021/11/01 02:54:12;;;;;;;4.50;2.10;;;;;;;;;;5096896;28;20054;-62
2021/11/01 02:56:38;;;;;;;7.93;2.33;;;;;;;;;;5094984;28;20447;-59
2021/11/01 02:59:04;;;;;;;6.68;2.22;;;;;;;;;;5092339;28;20043;-60
2021/11/01 03:01:30;;;;;;;6.03;2.58;;;;;;;;;;5091097;28;20034;-61
2021/11/01 03:03:56;;;;;;;4.45;1.95;;;;;;;;;;5092335;28;20060;-60
2021/11/01 03:06:23;;;;;;;6.03;2.33;;;;;;;;;;5094878;28;20054;-60
2021/11/01 03:08:50;;;;;;;6.70;2.55;;;;;;;;;;5092512;28;20039;-61
2021/11/01 03:11:16;;;;;;;8.50;2.30;;;;;;;;;;5070873;28;20051;-60
2021/11/01 03:13:42;;;;;;;5.22;2.20;;;;;;;;;;5086314;28;20142;-59
2021/11/01 03:16:08;;;;;;;7.05;2.22;;;;;;;;;;5088524;28;20767;-61
2021/11/01 03:18:53;;;;;;;5.15;2.20;;;;;;;;;;5089016;28;20044;-59
2021/11/01 03:21:23;;;;;;;6.22;2.50;;;;;;;;;;5090407;28;20040;-60
2021/11/01 03:23:49;;;;;;;5.45;2.15;;;;;;;;;;5055997;28;20123;-59
2021/11/01 03:26:24;;;;;;;5.25;1.75;;;;;;;;;;5090959;28;20638;-59
2021/11/01 03:28:53;;;;;;;6.43;2.63;;;;;;;;;;5088143;28;20790;-60
2021/11/01 03:31:21;;;;;;;4.03;1.70;;;;;;;;;;5089913;28;20039;-60
2021/11/01 03:33:46;;;;;;;4.88;1.77;;;;;;;;;;5090958;28;20476;-59
2021/11/01 03:36:13;;;;;;;6.93;2.38;;;;;;;;;;5091183;28;20117;-60
2021/11/01 03:38:40;;;;;;;4.55;2.10;;;;;;;;;;5088983;28;20043;-60
2021/11/01 03:41:09;;;;;;;5.20;2.30;;;;;;;;;;5090829;28;20054;-59
2021/11/01 03:43:52;;;;;;;18.23;7.25;;;;;;;;;;5091417;28;20043;-59
2021/11/01 03:46:25;;;;;;;7.70;3.97;;;;;;;;;;5092572;28;20410;-61
2021/11/01 03:48:51;;;;;;;4.22;1.95;;;;;;;;;;5091881;28;20314;-59
2021/11/01 03:54:02;;;;;;;7.45;2.13;;;;;;;;;;5090433;28;20068;-60
2021/11/01 03:56:28;;;;;;;3.85;1.73;;;;;;;;;;5088990;28;20031;-59
2021/11/01 03:58:55;;;;;;;4.28;1.90;;;;;;;;;;5090706;28;20094;-59
2021/11/01 04:01:22;;;;;;;4.70;1.98;;;;;;;;;;5088218;28;20044;-60
2021/11/01 04:03:48;;;;;;;3.35;1.70;;;;;;;;;;5090007;28;20063;-57
2021/11/01 04:06:17;;;;;;;5.55;2.15;;;;;;;;;;5092949;28;20055;-60
2021/11/01 04:08:43;;;;;;;5.47;1.55;;;;;;;;;;5087427;28;20388;-61
2021/11/01 04:11:10;;;;;;;6.03;2.08;;;;;;;;;;5090964;28;20149;-61
2021/11/01 04:13:36;;;;;;;4.32;2.20;;;;;;;;;;5089676;28;20552;-57
2021/11/01 04:16:10;;;;;;;3.47;1.42;;;;;;;;;;5092490;28;20036;-60
2021/11/01 04:21:34;;;;;;;6.28;2.42;;;;;;;;;;5052494;28;20535;-59
2021/11/01 04:24:01;;;;;;;4.28;1.75;;;;;;;;;;5090687;28;20046;-61
2021/11/01 04:26:27;;;;;;;3.90;1.70;;;;;;;;;;5090158;28;20047;-61
2021/11/01 04:28:54;;;;;;;2.97;1.48;;;;;;;;;;5092220;28;20580;-60
2021/11/01 04:31:26;;;;;;;7.45;2.47;;;;;;;;;;5091083;28;20520;-62
2021/11/01 04:33:55;;;;;;;4.15;1.85;;;;;;;;;;5069337;28;20407;-60
2021/11/01 04:36:22;;;;;;;4.10;1.58;;;;;;;;;;5089935;28;20051;-60
2021/11/01 04:39:09;;;;;;;16.35;2.13;;;;;;;;;;5090593;28;20028;-60
2021/11/01 04:41:58;;;;;;;3.65;1.88;;;;;;;;;;5091388;28;20100;-59
2021/11/01 04:55:20;;;;;;;4.78;2.05;;;;;;;;;;5091431;28;20085;-60
2021/11/01 04:57:46;;;;;;;4.22;1.85;;;;;;;;;;5083350;28;20036;-61
2021/11/01 05:00:13;;;;;;;6.07;2.10;;;;;;;;;;5087717;28;20089;-60
2021/11/01 05:02:44;;;;;;;3.70;2.00;;;;;;;;;;5076671;28;20401;-61
2021/11/01 05:05:10;;;;;;;5.22;2.28;;;;;;;;;;5067207;28;20074;-59
2021/11/01 05:07:36;;;;;;;7.75;2.15;;;;;;;;;;5080207;28;20063;-60
2021/11/01 05:10:12;;;;;;;5.68;2.03;;;;;;;;;;5092094;28;20494;-60
2021/11/01 05:12:41;;;;;;;7.10;2.58;;;;;;;;;;5092016;28;20044;-61
2021/11/01 05:15:24;;;;;;;5.55;1.90;;;;;;;;;;5091815;28;20028;-60
2021/11/01 05:18:04;;;;;;;4.97;2.30;;;;;;;;;;5090137;28;20174;-62
2021/11/01 05:20:38;;;;;;;5.10;2.08;;;;;;;;;;5087256;28;20039;-61
2021/11/01 05:23:12;;;;;;;4.72;2.40;;;;;;;;;;5088775;28;20059;-60
2021/11/01 05:30:40;;;;;;;5.53;1.70;;;;;;;;;;5073636;28;20032;-59
2021/11/01 05:35:37;;;;;;;4.32;1.92;;;;;;;;;;5084314;28;20461;-60
2021/11/01 05:38:04;;;;;;;3.50;1.63;;;;;;;;;;5088234;28;20124;-60
2021/11/01 05:40:30;;;;;;;6.68;2.17;;;;;;;;;;5088368;28;20036;-59
2021/11/01 05:42:57;;;;;;;4.05;1.92;;;;;;;;;;5087052;28;20446;-59
2021/11/01 05:45:23;;;;;;;3.85;1.85;;;;;;;;;;5088759;28;20040;-61
2021/11/01 05:48:00;;;;;;;4.15;1.95;;;;;;;;;;5089126;28;20048;-61
2021/11/01 05:50:28;;;;;;;4.05;1.80;;;;;;;;;;5090602;28;20576;-60
2021/11/01 05:52:56;;;;;;;3.70;1.77;;;;;;;;;;5089874;28;20046;-58
2021/11/01 05:55:43;;;;;;;3.78;1.98;;;;;;;;;;5090304;28;20074;-60
2021/11/01 05:58:36;;;;;;;2.95;1.50;;;;;;;;;;5089072;28;20040;-59
2021/11/01 06:04:03;;;;;;;12.10;1.83;;;;;;;;;;5090180;28;20576;-58
2021/11/01 06:06:55;;;;;;;3.15;1.50;;;;;;;;;;5086415;28;20040;-58
2021/11/01 06:14:50;;;;;;;3.65;1.58;;;;;;;;;;5091580;28;20034;-59
2021/11/01 06:17:15;;;;;;;6.22;1.77;;;;;;;;;;5091101;28;20376;-60
2021/11/01 06:19:41;;;;;;;3.42;1.45;;;;;;;;;;5091632;28;20588;-59
2021/11/01 06:22:07;;;;;;;4.75;2.47;;;;;;;;;;5090956;28;20039;-60
2021/11/01 06:27:09;;;;;;;3.63;1.80;;;;;;;;;;5092516;28;20054;-57
2021/11/01 06:29:46;;;;;;;8.18;2.92;;;;;;;;;;5094910;28;20523;-57
2021/11/01 06:32:24;;;;;;;5.53;2.22;;;;;;;;;;5098590;28;20036;-61
2021/11/01 06:43:16;;;;;;;7.22;3.05;;;;;;;;;;5101574;28;20624;-58
2021/11/01 07:15:35;;;;;;;5.70;2.85;;;;;;;;;;5093373;28;20042;-61
2021/11/01 07:21:05;;;;;;;15.35;2.78;;;;;;;;;;5093446;28;20051;-59
2021/11/01 08:42:29;;;;;;;3.53;1.95;;;;;;;;;;5093248;28;20067;-60
2021/11/01 09:03:53;;;;;;;6.32;3.35;;;;;;;;;;5091148;28;20054;-60
2021/11/01 09:09:56;;;;;;;4.32;2.05;;;;;;;;;;5088314;28;20547;-59
2021/11/01 09:20:18;;;;;;;4.03;1.88;;;;;;;;;;5086587;28;20428;-60
2021/11/01 09:28:28;;;;;;;4.85;1.95;;;;;;;;;;5090989;28;20151;-60
2021/11/01 09:36:36;;;;;;;3.65;1.98;;;;;;;;;;5091421;28;20050;-61
2021/11/01 09:39:40;;;;;;;3.92;2.13;;;;;;;;;;5091034;28;20395;-60
2021/11/01 09:41:52;;;;;;;7.80;2.08;;;;;;;;;;5079426;28;20044;-60
2021/11/01 09:44:23;;;;;;;3.78;1.70;;;;;;;;;;5070870;28;20036;-59
2021/11/01 09:46:49;;;;;;;3.58;1.75;;;;;;;;;;5076761;28;20046;-60
2021/11/01 09:49:16;;;;;;;5.00;2.35;;;;;;;;;;5066601;28;20060;-59
2021/11/01 09:51:43;;;;;;;4.50;2.40;;;;;;;;;;5065375;28;20067;-58
2021/11/01 09:54:19;;;;;;;3.72;1.60;;;;;;;;;;5066660;28;20551;-56
2021/11/01 09:56:57;;;;;;;3.53;1.98;;;;;;;;;;5065657;28;20454;-61
2021/11/01 09:59:24;;;;;;;4.75;2.25;;;;;;;;;;5069235;28;20112;-59
2021/11/01 10:01:52;;;;;;;3.38;1.48;;;;;;;;;;5073620;28;20048;-61
2021/11/01 10:04:22;;;;;;;6.25;2.85;;;;;;;;;;5082592;28;20032;-59
2021/11/01 10:07:16;;;;;;;3.58;2.22;;;;;;;;;;5072392;28;20067;-59
2021/11/01 10:09:42;;;;;;;4.70;2.42;;;;;;;;;;5085482;28;20472;-59
2021/11/01 10:12:12;;;;;;;4.25;1.67;;;;;;;;;;5078902;28;20622;-60
2021/11/01 10:14:59;;;;;;;4.80;2.28;;;;;;;;;;5095448;28;20048;-61
2021/11/01 10:17:35;;;;;;;3.60;1.35;;;;;;;;;;5087463;28;20042;-59
2021/11/01 10:20:05;;;;;;;5.50;2.22;;;;;;;;;;5095994;28;20551;-60
2021/11/01 10:22:33;;;;;;;4.20;1.80;;;;;;;;;;5095093;28;20043;-61
2021/11/01 10:24:59;;;;;;;3.70;1.95;;;;;;;;;;5095468;28;20067;-60
2021/11/01 10:27:33;;;;;;;2.95;1.33;;;;;;;;;;5093099;28;20052;-61
2021/11/01 10:30:05;;;;;;;3.90;2.05;;;;;;;;;;5093027;28;20629;-59
2021/11/01 10:32:34;;;;;;;3.40;1.58;;;;;;;;;;5095032;28;20040;-60
2021/11/01 10:35:20;;;;;;;4.32;2.72;;;;;;;;;;5093524;28;20031;-60
2021/11/01 10:38:08;;;;;;;5.03;2.17;;;;;;;;;;5093388;28;20047;-61
2021/11/01 10:40:36;;;;;;;7.60;2.40;;;;;;;;;;5094317;28;20150;-61
2021/11/01 10:43:38;;;;;;;4.97;2.03;;;;;;;;;;5092869;28;20092;-60
2021/11/01 10:46:27;;;;;;;4.22;2.03;;;;;;;;;;5091295;28;20040;-61
2021/11/01 11:39:08;;;;;;;4.10;1.58;;;;;;;;;;5091794;28;20055;-58
2021/11/01 11:49:39;;;;;;;7.82;1.85;;;;;;;;;;5091832;28;20716;-61
2021/11/01 11:52:09;;;;;;;3.13;1.73;;;;;;;;;;5092840;28;20051;-59
2021/11/01 11:54:39;;;;;;;6.00;1.95;;;;;;;;;;5091290;28;20031;-60
2021/11/01 11:57:16;;;;;;;2.92;1.50;;;;;;;;;;5094019;28;20562;-60
2021/11/01 11:59:45;;;;;;;4.35;1.90;;;;;;;;;;5093371;28;20039;-58
2021/11/01 12:02:11;;;;;;;5.72;2.22;;;;;;;;;;5092765;28;20046;-58
2021/11/01 12:04:44;;;;;;;4.43;1.98;;;;;;;;;;5092642;28;20223;-57
2021/11/01 12:07:14;;;;;;;3.75;2.08;;;;;;;;;;5089810;28;20040;-59
2021/11/01 12:09:59;;;;;;;5.25;2.75;;;;;;;;;;5073415;28;20146;-59
2021/11/01 12:13:15;;;;;;;4.45;1.77;;;;;;;;;;5095265;28;20120;-57
2021/11/01 12:17:59;;;;;;;6.30;2.28;;;;;;;;;;5098227;28;20043;-59
2021/11/01 12:20:25;;;;;;;6.35;2.42;;;;;;;;;;5099902;28;20036;-60
2021/11/01 12:22:55;;;;;;;7.55;2.28;;;;;;;;;;5099114;28;20227;-60
2021/11/01 12:25:23;;;;;;;5.50;3.00;;;;;;;;;;5097714;28;20059;-59
2021/11/01 12:27:56;;;;;;;5.18;2.35;;;;;;;;;;5096354;28;20060;-59
2021/11/01 12:30:24;;;;;;;4.85;2.45;;;;;;;;;;5044760;28;20411;-59
2021/11/01 12:32:50;;;;;;;7.43;2.40;;;;;;;;;;5072037;28;20214;-57
2021/11/01 12:35:24;;;;;;;4.95;2.13;;;;;;;;;;5070940;28;20043;-57
2021/11/01 12:37:52;;;;;;;5.57;2.28;;;;;;;;;;5074201;28;20042;-60
2021/11/01 12:57:13;;;;;;;5.13;2.47;;;;;;;;;;5068715;28;20134;-60
2021/11/01 12:59:43;;;;;;;5.22;2.70;;;;;;;;;;5056021;28;20491;-58
2021/11/01 13:02:14;;;;;;;5.20;2.95;;;;;;;;;;5078779;28;20024;-56
2021/11/01 13:04:41;;;;;;;7.47;3.08;;;;;;;;;;5083577;28;20032;-59
2021/11/01 13:07:23;;;;;;;11.43;3.47;;;;;;;;;;5071787;28;20765;-60
2021/11/01 13:18:21;;;;;;;5.25;2.67;;;;;;;;;;5034987;28;20047;-58
2021/11/01 13:20:54;;;;;;;5.10;2.85;;;;;;;;;;5090106;28;20045;-59
2021/11/01 13:23:21;;;;;;;6.05;2.40;;;;;;;;;;5088694;28;20668;-61
2021/11/01 13:28:46;;;;;;;3.78;2.15;;;;;;;;;;5091501;28;20054;-60
2021/11/01 13:36:49;;;;;;;6.97;2.92;;;;;;;;;;5081282;28;20075;-58
2021/11/01 13:39:26;;;;;;;8.55;3.10;;;;;;;;;;5093562;28;20039;-61
2021/11/01 13:41:52;;;;;;;3.97;2.00;;;;;;;;;;5093377;28;20055;-58
2021/11/01 13:44:22;;;;;;;9.23;2.92;;;;;;;;;;5093143;28;20044;-61
2021/11/01 13:47:15;;;;;;;8.07;2.78;;;;;;;;;;5092384;28;20035;-60
2021/11/01 13:49:45;;;;;;;6.95;2.85;;;;;;;;;;5092455;28;20066;-59
2021/11/01 13:54:54;;;;;;;4.10;2.50;;;;;;;;;;5090836;28;20036;-58
2021/11/01 13:57:20;;;;;;;6.07;3.22;;;;;;;;;;5089356;28;20055;-58
2021/11/01 14:00:10;;;;;;;19.85;2.30;;;;;;;;;;5092169;28;20043;-58
2021/11/01 14:13:51;;;;;;;;;;;;;;;;;;5039034;28;20158;-59
2021/11/01 14:16:44;;;;;;;7.72;2.55;;;;;;;;;;5040649;28;19917;-59
2021/11/01 14:19:16;;;;;;;6.18;2.75;;;;;;;;;;5075003;28;20071;-59
2021/11/01 14:57:53;;;;;;;7.60;2.85;;;;;;;;;;5093630;28;20113;-59
2021/11/01 15:21:10;;;;;;;6.88;3.28;;;;;;;;;;5069840;28;20567;-57
2021/11/01 15:34:41;;;;;;;28.52;3.97;;;;;;;;;;5069550;28;20040;-59
2021/11/01 15:37:32;;;;;;;8.43;3.92;;;;;;;;;;5067897;28;20044;-60
2021/11/01 16:18:32;;;;;;;11.43;3.15;;;;;;;;;;5074103;28;20130;-59
2021/11/01 16:20:58;;;;;;;6.32;3.47;;;;;;;;;;5092844;28;20617;-58
2021/11/01 16:23:36;;;;;;;9.35;3.25;;;;;;;;;;5090644;28;20043;-59
2021/11/01 16:26:28;;;;;;;8.63;3.42;;;;;;;;;;5093244;28;20198;-59
2021/11/01 16:29:08;;;;;;;30.50;4.03;;;;;;;;;;5091343;28;20043;-56
2021/11/01 16:34:12;;;;;;;10.27;3.78;;;;;;;;;;5091602;28;20040;-58
2021/11/01 16:36:45;;;;;;;5.43;3.03;;;;;;;;;;5071149;28;20158;-59
2021/11/01 16:39:11;;;;;;;;;;;;;;;;;;5095594;28;20046;-60
2021/11/01 16:41:37;;;;;;;7.22;2.78;;;;;;;;;;5091717;28;19916;-58
2021/11/01 16:44:26;;;;;;;7.10;2.33;;;;;;;;;;5092659;28;20043;-60
2021/11/01 16:46:53;;;;;;;6.47;2.13;;;;;;;;;;5090622;28;20408;-58
2021/11/01 16:49:20;;;;;;;6.72;2.88;;;;;;;;;;5093221;28;20063;-57
2021/11/01 16:51:47;;;;;;;8.10;2.13;;;;;;;;;;5092622;28;20036;-56
2021/11/01 16:54:16;;;;;;;5.80;1.92;;;;;;;;;;5093729;28;20047;-60
2021/11/01 17:02:02;;;;;;;4.90;1.95;;;;;;;;;;5093686;28;20039;-60
2021/11/01 17:04:30;;;;;;;5.93;1.70;;;;;;;;;;5093673;28;20062;-59
2021/11/01 17:07:06;;;;;;;6.07;1.83;;;;;;;;;;5093491;28;20067;-58
2021/11/01 17:09:58;;;;;;;4.30;2.00;;;;;;;;;;5094968;28;20062;-58
2021/11/01 17:24:04;;;;;;;5.03;2.17;;;;;;;;;;5090425;28;20129;-59
2021/11/01 17:26:22;;;;;;;12.35;2.25;;;;;;;;;;5093126;28;20122;-60
2021/11/01 17:37:04;;;;;;;3.58;1.77;;;;;;;;;;5074160;28;20124;-58
2021/11/01 18:40:20;;;;;;;4.13;1.27;;;;;;;;;;5098475;28;20880;-60
2021/11/01 18:43:03;;;;;;;2.47;0.90;;;;;;;;;;5096628;28;20038;-59
2021/11/01 18:45:47;;;;;;;10.02;1.25;;;;;;;;;;5095764;28;20118;-60
2021/11/01 18:51:06;;;;;;;7.60;1.48;;;;;;;;;;5094013;28;21869;-60
2021/11/01 18:53:49;;;;;;;8.52;1.27;;;;;;;;;;5095873;28;20122;-60
2021/11/01 18:56:15;;;;;;;4.15;1.15;;;;;;;;;;5068757;28;20036;-59
2021/11/01 18:58:42;;;;;;;2.55;0.98;;;;;;;;;;5094812;28;20087;-59
2021/11/01 19:01:09;;;;;;;6.43;1.10;;;;;;;;;;5097129;28;20407;-60
2021/11/01 19:03:40;;;;;;;3.75;1.00;;;;;;;;;;5094858;28;20039;-59
2021/11/01 21:26:09;;;;;;;4.63;1.30;;;;;;;;;;5091607;28;20042;-61
2021/11/01 21:28:35;;;;;;;4.82;1.33;;;;;;;;;;5089487;28;20044;-61
2021/11/01 21:31:01;;;;;;;3.08;1.33;;;;;;;;;;5094679;28;20475;-60
2021/11/01 21:33:31;;;;;;;5.35;1.52;;;;;;;;;;5092062;28;20068;-59
2021/11/01 21:36:10;;;;;;;2.72;1.33;;;;;;;;;;5088751;28;20047;-57
2021/11/01 21:38:36;;;;;;;6.80;1.95;;;;;;;;;;5072713;28;20487;-60
2021/11/01 21:41:03;;;;;;;4.93;1.70;;;;;;;;;;5089032;28;20061;-60
2021/11/01 21:43:29;;;;;;;3.22;1.55;;;;;;;;;;5091172;28;20046;-60
2021/11/01 21:45:55;;;;;;;2.92;1.38;;;;;;;;;;5089853;28;20032;-60
2021/11/01 21:48:23;;;;;;;3.05;1.38;;;;;;;;;;5088460;28;20046;-59
2021/11/01 21:50:49;;;;;;;4.78;1.60;;;;;;;;;;5092265;28;20039;-60
2021/11/01 21:53:18;;;;;;;7.22;1.80;;;;;;;;;;5090929;28;20088;-57
2021/11/01 21:55:45;;;;;;;3.80;1.45;;;;;;;;;;5088740;28;20055;-61
2021/11/01 21:58:33;;;;;;;3.28;1.48;;;;;;;;;;5091994;28;20035;-60
2021/11/01 22:20:00;;;;;;;5.32;1.58;;;;;;;;;;5096853;28;20084;-60
2021/11/01 22:22:38;;;;;;;4.93;1.67;;;;;;;;;;5094961;28;20051;-60
2021/11/01 22:25:13;;;;;;;5.28;1.80;;;;;;;;;;5093700;28;20118;-59
2021/11/01 22:33:12;;;;;;;3.58;1.90;;;;;;;;;;5093721;28;20153;-60
2021/11/01 22:46:48;;;;;;;6.32;1.65;;;;;;;;;;5094029;28;20053;-60
2021/11/01 22:57:27;;;;;;;4.28;1.50;;;;;;;;;;5093457;28;20046;-61
2021/11/01 22:59:54;;;;;;;5.47;2.15;;;;;;;;;;5095230;28;20519;-57
2021/11/01 23:02:20;;;;;;;7.15;2.05;;;;;;;;;;5093040;28;20125;-61
2021/11/01 23:04:51;;;;;;;4.43;2.05;;;;;;;;;;5093319;28;20038;-62
2021/11/01 23:31:55;;;;;;;3.65;1.88;;;;;;;;;;5095563;28;21064;-60
2021/11/01 23:34:22;;;;;;;7.25;2.50;;;;;;;;;;5093085;28;20071;-60
2021/11/01 23:36:48;;;;;;;3.97;2.03;;;;;;;;;;5093472;28;20044;-60
2021/11/01 23:39:15;;;;;;;4.05;1.98;;;;;;;;;;5088411;28;20043;-59
2021/11/01 23:41:48;;;;;;;5.50;2.35;;;;;;;;;;5088198;28;20040;-58
2021/11/01 23:44:14;;;;;;;4.97;2.53;;;;;;;;;;5091941;28;20036;-60
2021/11/01 23:46:40;;;;;;;6.68;2.42;;;;;;;;;;5089473;28;20048;-59
2021/11/01 23:49:06;;;;;;;5.82;2.15;;;;;;;;;;5086389;28;20044;-59
2021/11/01 23:51:35;;;;;;;7.72;2.65;;;;;;;;;;5073560;28;20071;-58
2021/11/01 23:56:34;;;;;;;5.10;2.70;;;;;;;;;;5092302;28;20653;-59
2021/11/01 23:58:59;;;;;;;4.72;2.40;;;;;;;;;;5093460;28;20040;-60
